Time;durP1;ratioP1;P1;durP2;ratioP2;P2;SDS_P1;SDS_P2;PMS_P1;PMS_P2;Temp;Humidity;BMP_temperature;BMP_pressure;BME280_temperature;BME280_humidity;BME280_pressure;Samples;Min_cycle;Max_cycle;Signal;HPM_P1;HPM_P2
2023/01/08 00:01:08;;;;;;;17.37;9.50;;;;;;;-4.83;100.00;100903.73;1602108;88;20430;-60
2023/01/08 00:03:35;;;;;;;17.02;9.65;;;;;;;-4.73;100.00;100898.16;1596255;88;21789;-60
2023/01/08 00:06:03;;;;;;;21.97;10.23;;;;;;;-4.68;100.00;100902.59;1594585;89;21497;-60
2023/01/08 00:08:30;;;;;;;20.15;9.98;;;;;;;-4.65;100.00;100903.59;1595226;88;21484;-60
2023/01/08 00:10:57;;;;;;;;;;;;;;;-4.64;100.00;100906.60;1598311;88;21552;-60
2023/01/08 00:13:24;;;;;;;16.30;8.53;;;;;;;-4.70;100.00;100913.66;1599834;88;20448;-59
2023/01/08 00:15:51;;;;;;;17.07;8.00;;;;;;;-4.64;100.00;100919.86;1596643;88;21862;-59
2023/01/08 00:18:18;;;;;;;12.93;7.12;;;;;;;-4.59;100.00;100918.35;1596290;88;21575;-62
2023/01/08 00:20:45;;;;;;;7.78;5.80;;;;;;;-4.56;100.00;100917.17;1604688;88;21580;-59
2023/01/08 00:23:15;;;;;;;13.20;6.43;;;;;;;-4.56;100.00;100919.35;1599118;88;21606;-59
2023/01/08 00:25:41;;;;;;;9.40;7.03;;;;;;;-4.55;100.00;100913.80;1596212;88;21524;-60
2023/01/08 00:28:08;;;;;;;9.73;6.80;;;;;;;-4.55;100.00;100911.23;1599182;88;21851;-60
2023/01/08 00:30:36;;;;;;;10.68;6.92;;;;;;;-4.51;100.00;100910.53;1594810;88;21440;-60
2023/01/08 00:33:03;;;;;;;11.10;6.67;;;;;;;-4.47;100.00;100914.09;1597986;88;21512;-59
2023/01/08 00:35:29;;;;;;;9.40;6.33;;;;;;;-4.46;100.00;100913.25;1600651;88;21632;-60
2023/01/08 00:41:56;;;;;;;9.18;5.90;;;;;;;-4.46;100.00;100914.16;1594779;88;21644;-60
2023/01/08 00:44:23;;;;;;;7.92;5.33;;;;;;;-4.57;100.00;100915.44;1603813;88;21618;-59
2023/01/08 00:46:49;;;;;;;6.90;4.70;;;;;;;-4.55;100.00;100912.52;1598334;88;21706;-60
2023/01/08 00:49:16;;;;;;;8.20;5.17;;;;;;;-4.54;100.00;100910.40;1597763;87;21616;-59
2023/01/08 00:51:43;;;;;;;8.63;5.80;;;;;;;-4.54;100.00;100912.58;1588648;89;21445;-60
2023/01/08 00:54:13;;;;;;;8.13;5.50;;;;;;;-4.51;100.00;100910.53;1600075;88;21667;-59
2023/01/08 00:56:40;;;;;;;8.05;5.75;;;;;;;-4.50;100.00;100905.45;1598198;88;21540;-60
2023/01/08 00:59:08;;;;;;;7.40;5.30;;;;;;;-4.48;100.00;100904.23;1597993;88;21461;-60
2023/01/08 01:01:35;;;;;;;8.70;4.83;;;;;;;-4.51;100.00;100906.26;1600723;88;21048;-59
2023/01/08 01:04:02;;;;;;;9.23;5.53;;;;;;;-4.52;100.00;100908.77;1594459;89;21616;-59
2023/01/08 01:06:29;;;;;;;6.95;5.25;;;;;;;-4.59;100.00;100905.52;1602883;88;21764;-60
2023/01/08 01:08:58;;;;;;;6.60;5.03;;;;;;;-4.60;100.00;100905.91;1593934;88;21535;-60
2023/01/08 01:11:26;;;;;;;9.33;5.58;;;;;;;-4.60;100.00;100903.33;1595791;89;21548;-59
2023/01/08 01:13:54;;;;;;;9.48;4.78;;;;;;;-4.58;100.00;100895.70;1595007;89;21537;-60
2023/01/08 01:16:22;;;;;;;8.63;5.75;;;;;;;-4.61;100.00;100895.19;1589810;88;21531;-60
2023/01/08 01:18:50;;;;;;;7.47;5.17;;;;;;;-4.64;100.00;100895.05;1595884;88;21812;-60
2023/01/08 01:21:29;;;;;;;11.18;6.28;;;;;;;-4.67;100.00;100894.95;1595425;88;21536;-60
2023/01/08 01:24:01;;;;;;;8.55;6.00;;;;;;;-4.67;100.00;100891.48;1598353;88;21630;-59
2023/01/08 01:26:29;;;;;;;8.98;5.80;;;;;;;-4.69;100.00;100895.27;1599576;88;21071;-60
2023/01/08 01:28:56;;;;;;;10.05;6.55;;;;;;;-4.71;100.00;100890.11;1597566;88;21590;-60
2023/01/08 01:31:24;;;;;;;9.45;6.12;;;;;;;-4.73;100.00;100889.56;1598078;88;25880;-60
2023/01/08 01:33:51;;;;;;;9.13;6.53;;;;;;;-4.75;100.00;100885.65;1598970;88;21414;-60
2023/01/08 01:36:19;;;;;;;9.08;6.25;;;;;;;-4.76;100.00;100880.48;1602579;88;21611;-60
2023/01/08 01:38:48;;;;;;;13.18;6.53;;;;;;;-4.76;100.00;100888.18;1599125;88;21564;-60
2023/01/08 01:41:26;;;;;;;9.90;6.62;;;;;;;-4.74;100.00;100893.83;1600821;88;20980;-60
2023/01/08 01:43:55;;;;;;;8.48;6.30;;;;;;;-4.74;100.00;100887.41;1594311;88;21811;-59
2023/01/08 01:46:35;;;;;;;11.22;6.20;;;;;;;-4.70;100.00;100890.56;1605109;88;21602;-59
2023/01/08 01:49:14;;;;;;;10.23;5.97;;;;;;;-4.68;100.00;100891.91;1597495;87;21501;-59
2023/01/08 01:51:45;;;;;;;9.38;6.05;;;;;;;-4.69;100.00;100893.99;1569955;89;21607;-60
2023/01/08 01:54:12;;;;;;;10.38;6.87;;;;;;;-4.72;100.00;100887.06;1591781;88;21005;-60
2023/01/08 01:56:39;;;;;;;;;;;;;;;-4.69;100.00;100891.42;1566707;90;21936;-60
2023/01/08 01:59:05;;;;;;;12.00;7.30;;;;;;;-4.75;100.00;100893.77;1593990;88;20267;-60
2023/01/08 02:01:32;;;;;;;14.23;6.67;;;;;;;-4.72;100.00;100892.61;1564652;90;21546;-60
2023/01/08 02:04:00;;;;;;;10.65;6.08;;;;;;;-4.75;100.00;100886.93;1587117;88;21561;-60
2023/01/08 02:06:37;;;;;;;10.53;6.17;;;;;;;-4.79;100.00;100890.20;1597851;87;21579;-59
2023/01/08 02:09:15;;;;;;;10.10;6.95;;;;;;;-4.83;100.00;100893.47;1599713;87;21797;-60
2023/01/08 02:12:16;;;;;;;10.70;6.58;;;;;;;-4.89;100.00;100895.38;1598759;87;21595;-60
2023/01/08 02:15:26;;;;;;;10.38;6.10;;;;;;;-4.93;100.00;100893.93;1600105;86;21531;-60
2023/01/08 02:18:04;;;;;;;8.88;5.92;;;;;;;-4.92;100.00;100902.08;1631046;86;21615;-60
2023/01/08 02:20:39;;;;;;;11.90;7.30;;;;;;;-4.93;100.00;100901.21;1597742;88;21596;-60
2023/01/08 02:23:42;;;;;;;12.00;6.80;;;;;;;-4.94;100.00;100898.58;1582718;89;21900;-60
2023/01/08 02:26:29;;;;;;;8.25;6.17;;;;;;;-4.95;100.00;100894.28;1606947;86;21667;-60
2023/01/08 02:29:19;;;;;;;10.85;6.97;;;;;;;-4.98;100.00;100895.02;1594261;87;21609;-61
2023/01/08 02:31:46;;;;;;;13.88;7.53;;;;;;;-4.98;100.00;100889.88;1572154;89;21510;-61
2023/01/08 02:34:12;;;;;;;9.75;6.30;;;;;;;-4.93;100.00;100892.64;1590689;87;21585;-61
2023/01/08 02:36:44;;;;;;;13.18;7.35;;;;;;;-4.90;100.00;100895.31;1598527;87;21874;-59
2023/01/08 02:39:57;;;;;;;13.75;7.83;;;;;;;-4.87;100.00;100901.00;1570595;89;21641;-61
2023/01/08 02:42:46;;;;;;;12.82;7.22;;;;;;;-4.88;100.00;100889.83;1625123;86;21513;-59
2023/01/08 02:45:45;;;;;;;14.03;8.18;;;;;;;-4.90;100.00;100888.90;1615328;86;21568;-63
2023/01/08 02:48:38;;;;;;;15.72;8.30;;;;;;;-4.87;100.00;100886.88;1624057;86;21476;-59
2023/01/08 02:51:16;;;;;;;13.43;7.75;;;;;;;-4.91;100.00;100889.31;1622793;87;21457;-60
2023/01/08 02:53:46;;;;;;;15.58;8.60;;;;;;;-4.89;100.00;100893.23;1613274;88;21517;-60
2023/01/08 02:56:17;;;;;;;14.78;8.18;;;;;;;-4.84;100.00;100890.45;1574809;89;21624;-60
2023/01/08 02:58:45;;;;;;;15.83;7.87;;;;;;;-4.86;100.00;100887.33;1610019;86;21552;-60
2023/01/08 03:01:15;;;;;;;14.75;8.43;;;;;;;-4.88;100.00;100883.42;1554433;90;21656;-61
2023/01/08 03:03:45;;;;;;;15.08;8.25;;;;;;;-4.91;100.00;100887.17;1624288;86;22301;-61
2023/01/08 03:06:14;;;;;;;13.62;8.33;;;;;;;-4.92;100.00;100886.69;1622500;86;20965;-60
2023/01/08 03:08:43;;;;;;;14.07;8.75;;;;;;;-4.92;100.00;100887.55;1610871;86;21510;-61
2023/01/08 03:11:13;;;;;;;13.78;8.43;;;;;;;-4.87;100.00;100890.31;1582329;89;21605;-60
2023/01/08 03:14:01;;;;;;;14.30;7.87;;;;;;;-4.83;100.00;100896.45;1610528;86;21525;-61
2023/01/08 03:16:36;;;;;;;13.98;8.28;;;;;;;-4.79;100.00;100897.03;1577529;89;21694;-60
2023/01/08 03:19:14;;;;;;;15.40;8.60;;;;;;;-4.80;100.00;100896.16;1568764;89;21744;-62
2023/01/08 03:21:40;;;;;;;17.40;9.13;;;;;;;-4.79;100.00;100886.34;1564824;89;21550;-62
2023/01/08 03:24:07;;;;;;;12.37;6.37;;;;;;;-4.83;100.00;100893.47;1571563;89;21612;-62
2023/01/08 03:26:34;;;;;;;15.05;8.03;;;;;;;-4.87;100.00;100896.73;1561824;89;21454;-59
2023/01/08 03:29:00;;;;;;;15.05;7.87;;;;;;;-4.83;100.00;100904.14;1565646;90;21835;-59
2023/01/08 03:31:27;;;;;;;13.58;7.72;;;;;;;-4.82;100.00;100898.18;1559417;90;21529;-59
2023/01/08 03:33:54;;;;;;;11.97;7.20;;;;;;;-4.82;100.00;100890.09;1574152;89;21547;-59
2023/01/08 03:36:25;;;;;;;15.30;7.90;;;;;;;-4.82;100.00;100893.95;1557380;90;21514;-59
2023/01/08 03:39:02;;;;;;;12.98;8.08;;;;;;;-4.79;100.00;100897.03;1563443;89;21539;-60
2023/01/08 03:41:30;;;;;;;15.70;7.25;;;;;;;-4.77;100.00;100901.39;1564790;90;21858;-61
2023/01/08 03:43:57;;;;;;;13.93;7.83;;;;;;;-4.72;100.00;100899.89;1573419;89;21041;-61
2023/01/08 03:46:31;;;;;;;15.05;8.13;;;;;;;-4.70;100.00;100896.98;1565148;89;21639;-60
2023/01/08 03:48:57;;;;;;;14.00;7.92;;;;;;;-4.65;100.00;100902.30;1572349;90;21532;-60
2023/01/08 03:51:24;;;;;;;11.88;7.33;;;;;;;-4.66;100.00;100895.41;1570381;89;21569;-64
2023/01/08 03:53:53;;;;;;;15.70;8.07;;;;;;;-4.65;100.00;100895.89;1562389;90;21806;-60
2023/01/08 03:56:20;;;;;;;13.80;7.15;;;;;;;-4.67;100.00;100887.26;1567309;89;22270;-60
2023/01/08 03:58:47;;;;;;;12.53;7.50;;;;;;;-4.65;100.00;100891.14;1564053;89;21762;-60
2023/01/08 04:01:14;;;;;;;16.17;7.60;;;;;;;-4.62;100.00;100884.44;1576168;89;20994;-61
2023/01/08 04:03:40;;;;;;;11.78;7.58;;;;;;;-4.62;100.00;100888.70;1567501;89;21573;-61
2023/01/08 04:06:07;;;;;;;15.57;8.23;;;;;;;-4.61;100.00;100890.05;1567101;89;21853;-60
2023/01/08 04:08:34;;;;;;;13.80;8.55;;;;;;;-4.58;100.00;100894.42;1573905;89;21535;-61
2023/01/08 04:11:01;;;;;;;14.75;7.28;;;;;;;-4.58;100.00;100890.56;1562855;89;21544;-61
2023/01/08 04:13:29;;;;;;;12.25;7.62;;;;;;;-4.58;100.00;100895.70;1561610;90;21493;-61
2023/01/08 04:15:56;;;;;;;12.25;6.97;;;;;;;-4.60;100.00;100900.77;1571366;90;21460;-62
2023/01/08 04:21:05;;;;;;;15.30;9.10;;;;;;;-4.52;100.00;100893.64;102969;1279;601138;-60
2023/01/08 04:23:32;;;;;;;14.30;9.30;;;;;;;-4.59;100.00;100899.33;103434;1270;60198;-60
2023/01/08 04:26:03;;;;;;;13.10;8.70;;;;;;;-4.67;100.00;100898.52;103408;1276;59564;-60
2023/01/08 04:28:30;;;;;;;16.90;9.30;;;;;;;-4.75;100.00;100900.29;103448;1271;73125;-60
2023/01/08 04:30:57;;;;;;;11.50;7.50;;;;;;;-4.79;100.00;100899.96;103378;1272;68955;-60
2023/01/08 04:33:25;;;;;;;13.00;7.50;;;;;;;-4.83;100.00;100905.42;103815;1277;73573;-60
2023/01/08 04:35:52;;;;;;;13.50;7.00;;;;;;;-4.90;100.00;100909.09;103845;1267;60709;-60
2023/01/08 04:38:19;;;;;;;14.60;6.80;;;;;;;-4.97;100.00;100907.64;103959;1277;59819;-60
2023/01/08 04:40:46;;;;;;;10.60;5.30;;;;;;;-5.00;100.00;100908.50;103864;1267;72535;-60
2023/01/08 04:43:13;;;;;;;10.40;6.40;;;;;;;-5.05;100.00;100907.30;104000;1262;71798;-60
2023/01/08 04:45:40;;;;;;;9.10;6.40;;;;;;;-5.09;100.00;100910.73;103926;1276;72448;-60
2023/01/08 04:48:07;;;;;;;9.60;6.10;;;;;;;-5.10;100.00;100910.00;104082;1275;60402;-60
2023/01/08 04:50:34;;;;;;;10.30;6.30;;;;;;;-5.13;100.00;100905.46;103920;1261;59848;-60
2023/01/08 04:53:01;;;;;;;11.70;6.70;;;;;;;-5.14;100.00;100902.83;103939;1272;72298;-60
2023/01/08 04:55:28;;;;;;;7.20;4.50;;;;;;;-5.15;100.00;100905.71;104076;1260;69290;-60
2023/01/08 04:57:55;;;;;;;10.70;7.20;;;;;;;-5.16;100.00;100905.30;104393;1263;73818;-62
2023/01/08 05:00:23;;;;;;;11.20;6.80;;;;;;;-5.17;100.00;100910.40;104216;1274;59804;-60
2023/01/08 05:02:50;;;;;;;12.80;7.40;;;;;;;-5.18;100.00;100911.73;104458;1255;60293;-60
2023/01/08 05:05:17;;;;;;;13.40;7.30;;;;;;;-5.23;100.00;100917.15;104399;1258;72665;-60
2023/01/08 05:07:44;;;;;;;15.10;8.80;;;;;;;-5.26;100.00;100918.59;104292;1258;72117;-60
2023/01/08 05:10:11;;;;;;;14.80;8.60;;;;;;;-5.28;100.00;100924.30;104401;1269;72722;-60
2023/01/08 05:12:38;;;;;;;16.30;8.40;;;;;;;-5.32;100.00;100924.66;104533;1259;61486;-60
2023/01/08 05:15:06;;;;;;;17.30;9.40;;;;;;;-5.32;100.00;100928.42;104331;1254;59933;-60
2023/01/08 05:17:33;;;;;;;18.20;10.00;;;;;;;-5.25;100.00;100928.52;104328;1255;73656;-60
2023/01/08 05:20:00;;;;;;;20.20;11.30;;;;;;;-5.18;100.00;100933.59;104490;1254;69789;-60
2023/01/08 05:22:27;;;;;;;21.90;12.10;;;;;;;-5.12;100.00;100935.05;104291;1258;72660;-63
2023/01/08 05:24:55;;;;;;;;;;;;;;;-5.06;100.00;100933.07;104263;1258;60594;-60
2023/01/08 05:27:22;;;;;;;25.30;11.60;;;;;;;-5.02;100.00;100932.91;104501;1253;59928;-60
2023/01/08 05:29:50;;;;;;;26.70;12.80;;;;;;;-4.95;100.00;100930.47;104398;1254;72442;-59
2023/01/08 05:32:17;;;;;;;28.40;12.90;;;;;;;-4.91;100.00;100929.39;104347;1265;69681;-61
2023/01/08 05:34:45;;;;;;;21.90;11.80;;;;;;;-4.90;100.00;100933.58;104269;1255;75102;-60
2023/01/08 05:37:12;;;;;;;25.90;11.60;;;;;;;-4.84;100.00;100931.04;104268;1269;61674;-60
2023/01/08 05:39:39;;;;;;;20.50;11.80;;;;;;;-4.80;100.00;100930.04;104310;1258;62059;-60
2023/01/08 05:42:06;;;;;;;21.50;11.20;;;;;;;-4.78;100.00;100933.89;104321;1264;75228;-60
2023/01/08 05:44:33;;;;;;;22.50;11.70;;;;;;;-4.77;100.00;100935.98;104407;1256;69880;-60
2023/01/08 05:47:00;;;;;;;22.40;12.50;;;;;;;-4.76;100.00;100934.10;104298;1254;72771;-60
2023/01/08 05:49:27;;;;;;;17.80;11.40;;;;;;;-4.74;100.00;100937.09;104354;1270;61069;-60
2023/01/08 05:51:54;;;;;;;23.50;12.70;;;;;;;-4.73;100.00;100936.96;104292;1258;59679;-60
2023/01/08 05:54:21;;;;;;;26.60;11.70;;;;;;;-4.72;100.00;100941.81;104324;1253;72879;-61
2023/01/08 05:56:48;;;;;;;23.50;12.30;;;;;;;-4.69;100.00;100938.81;104317;1258;70693;-59
2023/01/08 05:59:16;;;;;;;21.70;11.80;;;;;;;-4.70;100.00;100941.56;104465;1254;74543;-59
2023/01/08 06:01:43;;;;;;;20.20;11.30;;;;;;;-4.69;100.00;100939.69;104399;1256;61191;-59
2023/01/08 06:04:10;;;;;;;22.10;11.90;;;;;;;-4.70;100.00;100942.22;104282;1259;60233;-62
2023/01/08 06:06:37;;;;;;;25.40;12.00;;;;;;;-4.69;100.00;100941.55;104363;1258;73636;-58
2023/01/08 06:09:04;;;;;;;21.00;12.20;;;;;;;-4.65;100.00;100941.73;104333;1258;69680;-60
2023/01/08 06:11:31;;;;;;;20.50;11.60;;;;;;;-4.64;100.00;100940.41;104380;1270;72667;-60
2023/01/08 06:13:58;;;;;;;23.30;11.40;;;;;;;-4.65;100.00;100939.84;104677;1258;60511;-60
2023/01/08 06:16:26;;;;;;;20.20;11.70;;;;;;;-4.64;100.00;100945.87;104343;1270;60180;-62
2023/01/08 06:18:53;;;;;;;22.00;11.60;;;;;;;-4.63;100.00;100947.95;104415;1254;74726;-62
2023/01/08 06:21:21;;;;;;;;;;;;;;;-4.64;100.00;100949.48;104266;1260;68162;-62
2023/01/08 06:23:51;;;;;;;22.50;11.10;;;;;;;-4.67;100.00;100948.66;104368;1271;74287;-61
2023/01/08 06:26:21;;;;;;;25.60;12.20;;;;;;;-4.64;100.00;100944.81;104459;1258;61484;-62
2023/01/08 06:28:49;;;;;;;25.70;12.40;;;;;;;-4.61;100.00;100945.30;104293;1263;62472;-62
2023/01/08 06:31:16;;;;;;;24.60;11.80;;;;;;;-4.58;100.00;100944.07;104451;1257;74020;-61
2023/01/08 06:33:43;;;;;;;19.60;9.60;;;;;;;-4.57;100.00;100941.21;104625;1254;69505;-61
2023/01/08 06:36:13;;;;;;;27.40;12.50;;;;;;;-4.53;100.00;100942.20;104355;1257;72668;-61
2023/01/08 06:38:40;;;;;;;26.60;12.40;;;;;;;-4.52;100.00;100941.90;104220;1260;61520;-60
2023/01/08 06:41:09;;;;;;;21.10;11.30;;;;;;;-4.52;100.00;100940.52;104409;1258;59551;-60
2023/01/08 06:43:37;;;;;;;21.60;11.10;;;;;;;-4.57;100.00;100939.15;104283;1260;74668;-62
2023/01/08 06:46:05;;;;;;;22.70;11.40;;;;;;;-4.58;100.00;100942.03;104495;1259;69805;-62
2023/01/08 06:48:32;;;;;;;;;;;;;;;-4.56;100.00;100946.02;104438;1258;72605;-61
2023/01/08 06:51:00;;;;;;;23.50;11.30;;;;;;;-4.58;100.00;100943.19;104142;1269;61196;-62
2023/01/08 06:53:28;;;;;;;25.40;12.00;;;;;;;-4.53;100.00;100945.48;104006;1264;61222;-61
2023/01/08 06:55:57;;;;;;;26.40;12.20;;;;;;;-4.49;100.00;100946.45;104322;1260;73705;-63
2023/01/08 06:58:29;;;;;;;20.70;10.80;;;;;;;-4.50;100.00;100950.02;104429;1256;69334;-62
2023/01/08 07:00:58;;;;;;;26.30;13.00;;;;;;;-4.50;100.00;100946.77;104210;1275;75165;-63
2023/01/08 07:03:26;;;;;;;24.40;11.40;;;;;;;-4.49;100.00;100943.58;104620;1267;62844;-62
2023/01/08 10:10:25;;;;;;;7.10;5.00;;;;;;;-5.20;100.00;100906.33;101922;1292;601099;-63
2023/01/08 10:12:52;;;;;;;6.70;4.10;;;;;;;-4.93;100.00;100905.89;103536;1266;59839;-63
2023/01/08 10:15:19;;;;;;;7.30;5.00;;;;;;;-4.83;100.00;100909.52;103796;1263;62080;-63
2023/01/08 10:18:05;;;;;;;11.20;6.30;;;;;;;-4.69;100.00;100906.84;103805;1264;72094;-62
2023/01/08 10:20:33;;;;;;;10.90;6.80;;;;;;;-4.47;100.00;100908.37;103776;1264;68836;-61
2023/01/08 10:23:25;;;;;;;11.90;7.30;;;;;;;-4.34;100.00;100907.16;98368;1261;10371850;-62
2023/01/08 10:25:56;;;;;;;10.30;6.60;;;;;;;-4.25;100.00;100895.67;104046;1263;60381;-63
2023/01/08 10:28:25;;;;;;;10.60;7.70;;;;;;;-4.17;100.00;100887.58;104055;1267;72026;-62
2023/01/08 10:30:53;;;;;;;9.80;7.20;;;;;;;-4.08;100.00;100884.13;103937;1276;72229;-63
2023/01/08 10:33:30;;;;;;;11.30;7.40;;;;;;;-4.03;100.00;100885.83;103935;1264;75443;-63
2023/01/08 10:36:00;;;;;;;10.30;6.90;;;;;;;-4.01;100.00;100890.73;104055;1273;61364;-63
2023/01/08 10:38:30;;;;;;;9.80;7.10;;;;;;;-3.98;100.00;100888.42;104042;1261;59952;-61
2023/01/08 10:41:00;;;;;;;10.20;6.80;;;;;;;-3.95;100.00;100889.08;103956;1270;72521;-63
2023/01/08 10:43:33;;;;;;;8.80;6.50;;;;;;;-3.93;100.00;100885.73;103977;1277;70277;-65
2023/01/08 10:46:05;;;;;;;11.60;7.50;;;;;;;-3.92;100.00;100881.46;104021;1264;73398;-64
2023/01/08 10:48:35;;;;;;;9.00;7.10;;;;;;;-3.84;100.00;100882.42;104340;1257;61860;-66
2023/01/08 10:51:04;;;;;;;10.10;7.60;;;;;;;-3.72;100.00;100881.48;104326;1260;60257;-63
2023/01/08 10:53:33;;;;;;;10.20;7.60;;;;;;;-3.70;100.00;100883.09;104312;1257;72826;-66
2023/01/08 10:56:01;;;;;;;;;;;;;;;-3.69;100.00;100879.49;104281;1261;70881;-62
2023/01/08 10:58:29;;;;;;;10.40;7.40;;;;;;;-3.73;100.00;100880.07;104393;1254;74321;-62
2023/01/08 11:01:30;;;;;;;8.20;6.60;;;;;;;-3.78;100.00;100877.66;104336;1257;61797;-62
2023/01/08 11:04:03;;;;;;;9.10;6.60;;;;;;;-3.85;100.00;100878.30;104346;1261;61897;-63
2023/01/08 11:06:38;;;;;;;8.60;6.30;;;;;;;-3.88;100.00;100874.55;104283;1257;73062;-62
2023/01/08 11:09:22;;;;;;;8.80;6.60;;;;;;;-3.91;100.00;100867.62;104327;1274;69906;-63
2023/01/08 11:11:49;;;;;;;8.90;6.30;;;;;;;-3.94;100.00;100858.77;104455;1259;73087;-62
2023/01/08 11:14:25;;;;;;;11.20;6.20;;;;;;;-3.92;100.00;100855.92;104338;1259;60124;-65
2023/01/08 11:16:53;;;;;;;6.20;5.30;;;;;;;-3.90;100.00;100859.59;104264;1259;60119;-64
2023/01/08 11:19:24;;;;;;;;;;;;;;;-3.87;100.00;100862.08;104325;1276;73909;-61
2023/01/08 11:21:59;;;;;;;7.60;5.50;;;;;;;-3.82;100.00;100863.13;104258;1276;70419;-64
2023/01/08 11:24:28;;;;;;;8.20;6.30;;;;;;;-3.69;100.00;100861.00;104338;1268;74387;-66
2023/01/08 11:26:57;;;;;;;11.20;6.70;;;;;;;-3.64;100.00;100866.48;104206;1259;61618;-64
2023/01/08 11:29:37;;;;;;;10.40;7.20;;;;;;;-3.62;100.00;100862.11;104272;1254;60151;-63
2023/01/08 11:32:18;;;;;;;10.60;6.90;;;;;;;-3.62;100.00;100861.08;104364;1265;74292;-64
2023/01/08 11:35:10;;;;;;;9.00;7.00;;;;;;;-3.60;100.00;100863.23;104304;1263;69567;-66
2023/01/08 11:37:43;;;;;;;7.30;5.40;;;;;;;-3.57;100.00;100865.52;104532;1260;74186;-63
2023/01/08 11:40:17;;;;;;;6.80;5.80;;;;;;;-3.53;100.00;100864.13;104492;1257;62700;-64
2023/01/08 11:43:00;;;;;;;8.60;5.50;;;;;;;-3.46;100.00;100864.86;104320;1259;60342;-65
2023/01/08 11:45:45;;;;;;;7.00;5.40;;;;;;;-3.44;100.00;100860.98;104383;1260;72542;-64
2023/01/08 11:48:21;;;;;;;6.80;5.50;;;;;;;-3.43;100.00;100861.02;104457;1257;70126;-64
2023/01/08 11:51:26;;;;;;;8.70;5.40;;;;;;;-3.43;100.00;100861.71;104388;1259;72963;-64
2023/01/08 11:53:54;;;;;;;5.70;5.00;;;;;;;-3.42;100.00;100858.83;104429;1265;61383;-62
2023/01/08 11:56:49;;;;;;;8.80;5.00;;;;;;;-3.43;100.00;100856.58;104516;1267;60852;-62
2023/01/08 11:59:18;;;;;;;7.90;5.60;;;;;;;-3.46;100.00;100860.75;104226;1270;74244;-64
2023/01/08 12:01:53;;;;;;;8.90;6.00;;;;;;;-3.36;100.00;100860.73;104152;1260;69806;-64
2023/01/08 12:04:27;;;;;;;8.60;5.70;;;;;;;-3.25;100.00;100862.80;104386;1257;74440;-62
2023/01/08 12:07:14;;;;;;;8.20;6.10;;;;;;;-3.20;100.00;100863.52;104344;1254;59765;-62
2023/01/08 12:09:44;;;;;;;7.90;6.00;;;;;;;-3.17;100.00;100859.33;104318;1257;59730;-65
2023/01/08 12:12:40;;;;;;;7.70;5.80;;;;;;;-3.15;100.00;100857.49;104283;1260;73369;-63
2023/01/08 12:15:14;;;;;;;9.60;6.10;;;;;;;-3.14;100.00;100851.34;104468;1254;71314;-63
2023/01/08 12:18:18;;;;;;;6.70;5.40;;;;;;;-3.09;100.00;100850.95;104247;1260;71709;-63
2023/01/08 12:21:07;;;;;;;7.90;5.50;;;;;;;-3.05;100.00;100845.96;104444;1257;59697;-64
2023/01/08 12:23:57;;;;;;;7.50;5.30;;;;;;;-3.04;100.00;100838.45;104347;1257;61315;-62
2023/01/08 12:26:29;;;;;;;7.30;5.70;;;;;;;-3.05;100.00;100835.31;104417;1260;73876;-62
2023/01/08 12:29:06;;;;;;;5.90;4.80;;;;;;;-3.09;100.00;100836.39;104396;1258;69059;-62
2023/01/08 12:32:08;;;;;;;8.30;5.20;;;;;;;-3.14;100.00;100833.48;104327;1254;74321;-63
2023/01/08 12:34:48;;;;;;;7.10;5.20;;;;;;;-3.15;100.00;100827.80;104491;1267;60997;-62
2023/01/08 12:37:30;;;;;;;7.10;5.30;;;;;;;-3.13;100.00;100830.09;104473;1260;61052;-62
2023/01/08 12:40:16;;;;;;;7.70;5.50;;;;;;;-3.12;100.00;100823.61;104305;1257;73462;-63
2023/01/08 12:42:44;;;;;;;6.80;5.00;;;;;;;-3.10;100.00;100825.20;104364;1273;70155;-63
2023/01/08 12:45:24;;;;;;;5.80;4.90;;;;;;;-3.11;100.00;100823.81;104312;1257;73504;-64
2023/01/08 12:47:55;;;;;;;7.60;5.50;;;;;;;-3.07;100.00;100825.33;104248;1276;64315;-65
2023/01/08 12:50:45;;;;;;;12.50;7.20;;;;;;;-3.01;100.00;100824.63;104494;1254;60516;-64
2023/01/08 12:53:47;;;;;;;9.10;6.10;;;;;;;-3.06;100.00;100819.51;104355;1254;74519;-65
2023/01/08 12:56:39;;;;;;;7.50;5.20;;;;;;;-3.08;100.00;100817.88;104423;1257;71447;-68
2023/01/08 12:59:25;;;;;;;7.10;5.10;;;;;;;-3.13;100.00;100812.96;104364;1255;75232;-66
2023/01/08 13:02:13;;;;;;;7.30;4.90;;;;;;;-3.16;100.00;100816.11;104319;1259;60195;-64
2023/01/08 13:04:47;;;;;;;7.10;5.20;;;;;;;-3.17;100.00;100815.06;104311;1254;61021;-64
2023/01/08 13:07:32;;;;;;;7.00;5.60;;;;;;;-3.18;100.00;100814.16;104335;1254;75329;-63
2023/01/08 13:10:02;;;;;;;6.80;5.20;;;;;;;-3.23;100.00;100811.80;104400;1276;68671;-64
2023/01/08 13:12:38;;;;;;;6.40;4.50;;;;;;;-3.25;100.00;100816.52;104429;1261;72308;-63
2023/01/08 13:15:19;;;;;;;6.30;4.70;;;;;;;-3.26;100.00;100814.08;104249;1258;62767;-64
2023/01/08 13:17:47;;;;;;;6.40;4.60;;;;;;;-3.25;100.00;100810.84;104364;1263;60358;-67
2023/01/08 13:20:23;;;;;;;7.90;5.60;;;;;;;-3.27;100.00;100813.19;104349;1256;75079;-66
2023/01/08 13:22:58;;;;;;;8.10;5.00;;;;;;;-3.30;100.00;100817.54;104451;1257;72328;-63
2023/01/08 13:25:38;;;;;;;9.40;5.20;;;;;;;-3.30;100.00;100817.55;104310;1260;72710;-63
2023/01/08 13:28:42;;;;;;;10.00;5.70;;;;;;;-3.38;100.00;100817.48;104243;1264;62237;-63
2023/01/08 13:31:19;;;;;;;8.40;6.30;;;;;;;-3.40;100.00;100824.25;104256;1261;59640;-64
2023/01/08 13:33:48;;;;;;;13.20;6.60;;;;;;;-3.37;100.00;100825.04;104371;1258;74472;-68
2023/01/08 13:36:26;;;;;;;9.80;6.90;;;;;;;-3.39;100.00;100822.91;104362;1267;71540;-64
2023/01/08 13:39:00;;;;;;;;;;;;;;;-3.45;100.00;100820.16;104240;1263;74637;-65
2023/01/08 13:41:30;;;;;;;9.70;6.50;;;;;;;-3.57;100.00;100812.06;104369;1266;60775;-65
2023/01/08 13:44:04;;;;;;;8.10;6.00;;;;;;;-3.64;100.00;100809.95;104330;1261;59861;-65
2023/01/08 13:46:33;;;;;;;9.70;5.80;;;;;;;-3.72;100.00;100805.23;104282;1259;74867;-64
2023/01/08 13:49:02;;;;;;;10.00;5.30;;;;;;;-3.81;100.00;100803.54;104269;1261;70122;-65
2023/01/08 13:51:37;;;;;;;8.00;5.90;;;;;;;-3.91;100.00;100803.02;104365;1258;73288;-66
2023/01/08 13:54:16;;;;;;;14.20;5.60;;;;;;;-4.01;100.00;100800.95;104429;1260;60271;-63
2023/01/08 18:04:52;;;;;;;4.70;3.20;;;;;;;-7.90;100.00;100779.20;102577;1292;601313;-64
2023/01/08 18:07:20;;;;;;;8.40;4.90;;;;;;;-7.61;100.00;100783.52;103816;1267;61273;-66
2023/01/08 18:09:48;;;;;;;12.80;5.60;;;;;;;-7.42;100.00;100782.41;104383;1261;60586;-67
2023/01/08 18:12:15;;;;;;;11.30;6.80;;;;;;;-7.27;100.00;100779.88;104269;1259;72395;-66
2023/01/08 18:14:42;;;;;;;12.40;7.30;;;;;;;-7.15;100.00;100776.67;104354;1270;69592;-69
2023/01/08 18:17:10;;;;;;;15.70;8.10;;;;;;;-7.03;100.00;100777.40;104410;1258;72534;-65
2023/01/08 18:19:37;;;;;;;;;;;;;;;-6.95;100.00;100770.95;104417;1257;146077;-64
2023/01/08 18:22:04;;;;;;;10.60;6.60;;;;;;;-6.90;100.00;100769.48;104306;1257;60407;-67
2023/01/08 18:24:32;;;;;;;17.20;7.20;;;;;;;-6.82;100.00;100762.50;104342;1255;72937;-67
2023/01/08 18:26:59;;;;;;;12.90;7.10;;;;;;;-6.77;100.00;100760.20;104334;1267;69987;-65
2023/01/08 18:29:27;;;;;;;;;;;;;;;-6.71;100.00;100757.55;104286;1257;74156;-66
2023/01/08 18:31:54;;;;;;;14.70;7.20;;;;;;;-6.72;100.00;100758.00;104308;1264;61394;-69
2023/01/08 18:34:21;;;;;;;11.40;7.40;;;;;;;-6.69;100.00;100755.08;104332;1266;62099;-65
2023/01/08 18:36:48;;;;;;;11.60;7.30;;;;;;;-6.65;100.00;100758.48;104506;1256;73767;-68
2023/01/08 18:39:15;;;;;;;11.00;6.70;;;;;;;-6.65;100.00;100757.30;104359;1257;69852;-67
2023/01/08 18:44:29;;;;;;;12.40;7.60;;;;;;;-6.60;100.00;100754.24;104372;1253;61152;-68
2023/01/08 18:46:56;;;;;;;13.10;7.50;;;;;;;-6.53;100.00;100756.44;104478;1254;60146;-67
2023/01/08 18:49:26;;;;;;;14.10;8.10;;;;;;;-6.47;100.00;100752.78;104427;1264;75315;-69
2023/01/08 18:51:53;;;;;;;13.00;7.30;;;;;;;-6.42;100.00;100747.20;104338;1272;71165;-69
2023/01/08 18:54:20;;;;;;;;;;;;;;;-6.38;100.00;100745.84;104372;1257;72647;-72